Time;durP1;ratioP1;P1;durP2;ratioP2;P2;SDS_P1;SDS_P2;PMS_P1;PMS_P2;Temp;Humidity;BMP_temperature;BMP_pressure;BME280_temperature;BME280_humidity;BME280_pressure;Samples;Min_cycle;Max_cycle;Signal;HPM_P1;HPM_P2
2022/06/20 00:00:40;;;;;;;146.50;116.35;;;;;;;;;;5010558;28;20213;-49
2022/06/20 00:03:09;;;;;;;181.65;125.82;;;;;;;;;;5010444;28;20289;-49
2022/06/20 00:05:36;;;;;;;193.07;129.05;;;;;;;;;;5010361;28;20220;-49
2022/06/20 00:08:03;;;;;;;180.15;127.85;;;;;;;;;;5010503;28;20585;-49
2022/06/20 00:10:29;;;;;;;185.18;127.03;;;;;;;;;;5010406;28;20653;-49
2022/06/20 00:12:56;;;;;;;158.30;118.13;;;;;;;;;;5010884;28;20238;-49
2022/06/20 00:15:24;;;;;;;162.38;117.78;;;;;;;;;;5010602;28;20243;-49
2022/06/20 00:17:50;;;;;;;153.65;113.53;;;;;;;;;;5010298;28;20227;-49
2022/06/20 00:20:16;;;;;;;131.13;107.60;;;;;;;;;;5010470;28;20661;-49
2022/06/20 00:22:42;;;;;;;167.18;117.07;;;;;;;;;;5010521;28;20229;-49
2022/06/20 00:25:08;;;;;;;162.07;118.05;;;;;;;;;;5010891;28;20232;-49
2022/06/20 00:27:34;;;;;;;162.73;117.38;;;;;;;;;;5012866;28;20282;-49
2022/06/20 00:30:01;;;;;;;156.93;116.63;;;;;;;;;;5014341;28;20228;-49
2022/06/20 00:32:27;;;;;;;166.30;118.60;;;;;;;;;;5013794;28;20243;-49
2022/06/20 00:34:53;;;;;;;159.48;114.68;;;;;;;;;;5013973;28;20220;-49
2022/06/20 00:37:20;;;;;;;166.60;117.30;;;;;;;;;;5014767;28;20552;-49
2022/06/20 00:39:46;;;;;;;174.93;117.97;;;;;;;;;;5013960;28;20216;-49
2022/06/20 00:42:12;;;;;;;148.00;112.70;;;;;;;;;;5013935;28;20235;-49
2022/06/20 00:44:40;;;;;;;174.35;121.82;;;;;;;;;;5013890;28;20216;-49
2022/06/20 00:47:09;;;;;;;170.98;121.50;;;;;;;;;;5014049;28;20208;-49
2022/06/20 00:49:39;;;;;;;172.25;122.28;;;;;;;;;;5013548;28;20189;-49
2022/06/20 00:52:13;;;;;;;151.80;113.18;;;;;;;;;;5014422;28;20174;-49
2022/06/20 00:54:57;;;;;;;152.73;114.32;;;;;;;;;;5013512;28;20217;-49
2022/06/20 00:57:29;;;;;;;142.27;110.68;;;;;;;;;;5013759;28;20224;-49
2022/06/20 01:00:06;;;;;;;164.95;119.97;;;;;;;;;;5013508;28;20220;-49
2022/06/20 01:02:33;;;;;;;166.70;121.13;;;;;;;;;;5013546;28;20231;-49
2022/06/20 01:05:06;;;;;;;152.27;117.63;;;;;;;;;;5013590;28;20220;-49
2022/06/20 01:07:41;;;;;;;138.20;113.75;;;;;;;;;;5013176;28;20632;-49
2022/06/20 01:10:10;;;;;;;158.00;116.35;;;;;;;;;;4996234;28;20177;-49
2022/06/20 01:12:42;;;;;;;141.50;115.43;;;;;;;;;;5013362;28;20335;-49
2022/06/20 01:15:22;;;;;;;148.38;117.55;;;;;;;;;;5013957;28;20707;-49
2022/06/20 01:17:48;;;;;;;168.55;119.05;;;;;;;;;;5013098;28;20354;-49
2022/06/20 01:20:27;;;;;;;151.35;114.75;;;;;;;;;;5013303;28;20589;-49
2022/06/20 01:22:53;;;;;;;140.70;113.28;;;;;;;;;;4995771;28;20224;-49
2022/06/20 01:25:38;;;;;;;153.95;118.25;;;;;;;;;;5013519;28;20207;-49
2022/06/20 01:28:06;;;;;;;144.02;114.55;;;;;;;;;;5013370;28;20251;-49
2022/06/20 01:30:34;;;;;;;154.15;116.40;;;;;;;;;;5013093;28;20732;-48
2022/06/20 01:33:00;;;;;;;159.02;116.55;;;;;;;;;;5013248;28;20217;-49
2022/06/20 01:38:13;;;;;;;119.45;106.38;;;;;;;;;;5012084;28;20255;-49
2022/06/20 01:42:18;;;;;;;134.30;111.73;;;;;;;;;;5013004;28;20252;-49
2022/06/20 01:43:28;;;;;;;147.57;114.45;;;;;;;;;;5012618;28;20755;-49
2022/06/20 01:46:00;;;;;;;142.35;112.07;;;;;;;;;;5013435;28;20200;-49
2022/06/20 01:48:28;;;;;;;128.05;106.55;;;;;;;;;;5012409;28;20597;-49
2022/06/20 01:50:54;;;;;;;118.50;101.78;;;;;;;;;;5013033;28;20700;-49
2022/06/20 01:53:22;;;;;;;133.50;105.85;;;;;;;;;;5012809;28;20244;-49
2022/06/20 01:55:50;;;;;;;143.35;109.07;;;;;;;;;;5012705;28;20218;-49
2022/06/20 01:58:23;;;;;;;143.38;109.63;;;;;;;;;;5013102;28;20200;-49
2022/06/20 02:00:49;;;;;;;153.57;115.75;;;;;;;;;;5012857;28;20304;-49
2022/06/20 02:03:17;;;;;;;141.07;110.90;;;;;;;;;;5012520;28;20304;-49
2022/06/20 02:05:44;;;;;;;154.50;114.43;;;;;;;;;;5012385;28;20540;-49
2022/06/20 02:08:11;;;;;;;147.35;112.13;;;;;;;;;;5012091;28;20226;-49
2022/06/20 02:10:46;;;;;;;155.70;116.13;;;;;;;;;;5012539;28;20173;-49
2022/06/20 02:13:13;;;;;;;141.05;109.90;;;;;;;;;;5012495;28;20184;-49
2022/06/20 02:15:40;;;;;;;147.25;111.97;;;;;;;;;;4994549;28;20221;-49
2022/06/20 02:18:08;;;;;;;158.15;116.65;;;;;;;;;;5011758;28;20216;-49
2022/06/20 02:20:45;;;;;;;146.88;113.63;;;;;;;;;;5012065;28;20316;-49
2022/06/20 02:23:11;;;;;;;141.68;110.40;;;;;;;;;;5011978;28;20642;-48
2022/06/20 02:25:38;;;;;;;148.25;112.13;;;;;;;;;;5011904;28;20701;-49
2022/06/20 02:28:06;;;;;;;164.30;119.40;;;;;;;;;;5012512;28;20197;-48
2022/06/20 02:30:33;;;;;;;161.52;116.10;;;;;;;;;;5011760;28;20585;-49
2022/06/20 02:33:02;;;;;;;156.68;116.07;;;;;;;;;;5011686;28;20312;-49
2022/06/20 02:35:29;;;;;;;170.93;119.28;;;;;;;;;;5011947;28;20217;-49
2022/06/20 02:37:55;;;;;;;151.73;112.93;;;;;;;;;;5011432;28;20251;-49
2022/06/20 02:40:23;;;;;;;147.90;111.22;;;;;;;;;;5011687;28;20582;-48
2022/06/20 02:43:11;;;;;;;159.40;113.05;;;;;;;;;;5011920;28;20200;-49
2022/06/20 02:45:38;;;;;;;160.85;115.50;;;;;;;;;;5011594;28;20217;-49
2022/06/20 02:48:05;;;;;;;164.02;115.45;;;;;;;;;;5011333;28;20247;-48
2022/06/20 02:50:34;;;;;;;172.10;119.10;;;;;;;;;;5011284;28;20304;-48
2022/06/20 02:53:03;;;;;;;156.30;113.93;;;;;;;;;;4993850;28;20258;-49
2022/06/20 02:55:30;;;;;;;128.95;108.03;;;;;;;;;;5011320;28;20177;-48
2022/06/20 02:57:59;;;;;;;152.75;112.60;;;;;;;;;;5012065;28;20585;-48
2022/06/20 03:00:32;;;;;;;135.55;109.82;;;;;;;;;;5011312;28;20224;-48
2022/06/20 03:03:03;;;;;;;165.13;116.40;;;;;;;;;;5011054;28;20254;-48
2022/06/20 03:05:29;;;;;;;151.10;111.85;;;;;;;;;;5011366;28;20304;-49
2022/06/20 03:07:55;;;;;;;151.63;111.72;;;;;;;;;;5011131;28;20224;-49
2022/06/20 03:10:38;;;;;;;153.17;116.47;;;;;;;;;;5011201;28;20173;-49
2022/06/20 03:13:05;;;;;;;168.13;114.80;;;;;;;;;;5011530;28;20162;-48
2022/06/20 03:15:31;;;;;;;162.85;116.13;;;;;;;;;;5011206;28;20716;-49
2022/06/20 03:17:58;;;;;;;155.77;112.93;;;;;;;;;;5011007;28;20228;-49
2022/06/20 03:20:28;;;;;;;168.03;118.23;;;;;;;;;;5010755;28;20254;-49
2022/06/20 03:23:04;;;;;;;149.73;112.22;;;;;;;;;;5010787;28;20228;-49
2022/06/20 03:25:31;;;;;;;151.68;111.70;;;;;;;;;;5010972;28;20173;-48
2022/06/20 03:27:57;;;;;;;163.30;115.30;;;;;;;;;;5011283;28;20197;-49
2022/06/20 03:30:29;;;;;;;181.53;118.90;;;;;;;;;;5010753;28;20220;-49
2022/06/20 03:32:56;;;;;;;161.35;112.15;;;;;;;;;;5010501;28;20224;-49
2022/06/20 03:35:22;;;;;;;188.10;121.80;;;;;;;;;;5010418;28;20220;-49
2022/06/20 03:37:48;;;;;;;168.35;115.18;;;;;;;;;;5010528;28;20213;-48
2022/06/20 03:40:14;;;;;;;168.95;117.03;;;;;;;;;;5011187;28;20245;-49
2022/06/20 03:42:40;;;;;;;156.23;112.53;;;;;;;;;;5010485;28;20224;-49
2022/06/20 03:45:08;;;;;;;173.90;118.43;;;;;;;;;;5010733;28;20681;-49
2022/06/20 03:47:37;;;;;;;178.90;121.15;;;;;;;;;;5009968;28;20223;-49
2022/06/20 03:50:09;;;;;;;178.17;119.43;;;;;;;;;;5010367;28;20437;-49
2022/06/20 03:52:39;;;;;;;178.13;120.82;;;;;;;;;;5010533;28;20657;-49
2022/06/20 03:55:07;;;;;;;169.33;118.03;;;;;;;;;;5010913;28;20177;-49
2022/06/20 03:57:35;;;;;;;197.75;127.50;;;;;;;;;;5010404;28;20687;-49
2022/06/20 04:00:01;;;;;;;174.00;120.13;;;;;;;;;;5010727;28;20271;-49
2022/06/20 04:02:50;;;;;;;187.80;124.15;;;;;;;;;;5009587;28;20246;-49
2022/06/20 04:05:30;;;;;;;165.97;120.07;;;;;;;;;;4999886;28;20247;-49
2022/06/20 04:11:21;;;;;;;168.43;118.90;;;;;;;;;;4930455;28;20226;-49
2022/06/20 04:13:47;;;;;;;174.32;118.55;;;;;;;;;;4930287;29;20215;-49
2022/06/20 04:16:23;;;;;;;174.05;118.75;;;;;;;;;;4979799;28;20188;-49
2022/06/20 04:19:07;;;;;;;168.95;115.78;;;;;;;;;;5009973;28;20232;-48
2022/06/20 04:21:34;;;;;;;187.65;124.75;;;;;;;;;;5009952;28;20209;-48
2022/06/20 04:24:07;;;;;;;180.37;122.23;;;;;;;;;;5009961;28;20232;-48
2022/06/20 04:26:45;;;;;;;164.48;118.20;;;;;;;;;;4990489;28;20217;-48
2022/06/20 04:29:18;;;;;;;183.10;121.70;;;;;;;;;;4991011;28;20221;-47
2022/06/20 04:31:50;;;;;;;172.73;114.75;;;;;;;;;;5009969;28;20221;-48
2022/06/20 04:34:48;;;;;;;176.77;117.25;;;;;;;;;;5010401;28;20551;-48
2022/06/20 04:37:20;;;;;;;170.93;116.13;;;;;;;;;;4956569;28;20208;-48
2022/06/20 04:39:57;;;;;;;177.27;121.53;;;;;;;;;;4992622;28;20216;-48
2022/06/20 04:42:41;;;;;;;190.82;125.10;;;;;;;;;;5009502;28;20224;-48
2022/06/20 04:45:45;;;;;;;177.00;120.03;;;;;;;;;;5010059;28;20623;-48
2022/06/20 04:48:13;;;;;;;165.25;117.00;;;;;;;;;;4929835;29;20762;-48
2022/06/20 04:50:42;;;;;;;175.63;118.20;;;;;;;;;;4929939;29;20791;-48
2022/06/20 04:53:12;;;;;;;168.68;116.88;;;;;;;;;;4960232;28;20217;-48
2022/06/20 04:55:40;;;;;;;175.38;118.75;;;;;;;;;;4990156;28;20228;-48
2022/06/20 04:58:08;;;;;;;175.75;119.43;;;;;;;;;;4990931;28;20190;-48
2022/06/20 05:00:42;;;;;;;185.77;124.00;;;;;;;;;;4990033;28;20221;-48
2022/06/20 05:03:12;;;;;;;193.35;126.30;;;;;;;;;;4990123;28;20252;-48
2022/06/20 05:05:41;;;;;;;175.02;121.78;;;;;;;;;;5009545;28;20222;-48
2022/06/20 05:08:10;;;;;;;180.98;123.57;;;;;;;;;;5009865;28;20343;-48
2022/06/20 05:10:48;;;;;;;169.85;118.88;;;;;;;;;;5009682;28;20181;-48
2022/06/20 05:13:18;;;;;;;175.05;120.22;;;;;;;;;;5012073;28;20196;-48
2022/06/20 05:15:46;;;;;;;180.43;124.10;;;;;;;;;;5013753;28;20306;-50
2022/06/20 05:18:24;;;;;;;181.63;124.68;;;;;;;;;;5012912;28;20230;-50
2022/06/20 05:20:52;;;;;;;192.32;126.90;;;;;;;;;;5013064;28;20212;-50
2022/06/20 05:23:31;;;;;;;160.65;119.68;;;;;;;;;;5013095;28;20358;-50
2022/06/20 05:25:59;;;;;;;201.75;130.55;;;;;;;;;;5010323;28;20217;-50
2022/06/20 05:28:25;;;;;;;181.75;124.53;;;;;;;;;;5012491;28;20196;-50
2022/06/20 05:30:51;;;;;;;212.45;135.15;;;;;;;;;;5013631;28;20676;-50
2022/06/20 05:33:28;;;;;;;194.88;128.90;;;;;;;;;;5012555;28;20311;-50
2022/06/20 05:35:57;;;;;;;187.70;125.30;;;;;;;;;;4992973;28;20319;-50
2022/06/20 05:38:26;;;;;;;195.15;127.65;;;;;;;;;;5012282;28;20348;-50
2022/06/20 05:40:54;;;;;;;190.73;126.35;;;;;;;;;;5012282;28;20220;-50
2022/06/20 05:43:20;;;;;;;204.93;130.75;;;;;;;;;;5011813;28;20247;-50
2022/06/20 05:45:49;;;;;;;204.98;129.02;;;;;;;;;;5012789;28;20173;-50
2022/06/20 05:48:15;;;;;;;221.60;134.23;;;;;;;;;;5011503;28;20588;-50
2022/06/20 05:50:47;;;;;;;231.63;139.83;;;;;;;;;;5012174;28;20303;-50
2022/06/20 05:53:15;;;;;;;179.63;122.03;;;;;;;;;;5012458;28;20220;-50
2022/06/20 05:55:46;;;;;;;202.10;128.48;;;;;;;;;;5010493;28;20213;-50
2022/06/20 05:58:15;;;;;;;207.02;129.65;;;;;;;;;;5009503;28;20201;-50
2022/06/20 06:00:42;;;;;;;220.98;136.80;;;;;;;;;;5010257;28;20674;-50
2022/06/20 06:03:14;;;;;;;210.00;129.45;;;;;;;;;;5010063;28;20228;-50
2022/06/20 06:05:42;;;;;;;214.15;128.95;;;;;;;;;;5009861;28;20217;-50
2022/06/20 06:08:24;;;;;;;237.87;137.17;;;;;;;;;;5009971;28;20220;-49
2022/06/20 06:10:57;;;;;;;226.35;137.43;;;;;;;;;;5010006;28;20213;-49
2022/06/20 06:13:26;;;;;;;230.48;136.25;;;;;;;;;;5010061;28;20192;-50
2022/06/20 06:19:07;;;;;;;206.10;130.07;;;;;;;;;;5009182;28;20220;-49
2022/06/20 06:21:33;;;;;;;228.03;139.07;;;;;;;;;;5008847;28;20224;-49
2022/06/20 06:24:00;;;;;;;208.05;128.25;;;;;;;;;;5009203;28;20225;-49
2022/06/20 06:26:26;;;;;;;189.67;121.73;;;;;;;;;;5010403;28;20224;-48
2022/06/20 06:28:53;;;;;;;229.18;135.57;;;;;;;;;;5009700;28;20687;-48
2022/06/20 06:31:22;;;;;;;198.93;121.80;;;;;;;;;;5009461;28;20246;-49
2022/06/20 06:33:59;;;;;;;166.77;111.30;;;;;;;;;;5010405;28;20181;-48
2022/06/20 06:36:30;;;;;;;190.60;123.77;;;;;;;;;;5009178;28;20688;-49
2022/06/20 06:38:59;;;;;;;192.93;122.70;;;;;;;;;;5009277;28;20224;-49
2022/06/20 06:41:30;;;;;;;154.60;111.53;;;;;;;;;;5009347;28;20243;-50
2022/06/20 06:43:58;;;;;;;198.50;123.23;;;;;;;;;;4991852;28;20229;-50
2022/06/20 06:46:35;;;;;;;174.00;114.73;;;;;;;;;;5009416;28;20243;-49
2022/06/20 06:49:01;;;;;;;177.13;115.53;;;;;;;;;;5009539;28;20687;-49
2022/06/20 06:51:27;;;;;;;180.70;114.63;;;;;;;;;;5009215;28;20295;-49
2022/06/20 06:53:58;;;;;;;156.07;108.93;;;;;;;;;;5009020;28;20220;-49
2022/06/20 06:56:43;;;;;;;169.73;110.43;;;;;;;;;;5009292;28;20300;-49
2022/06/20 06:59:20;;;;;;;182.63;115.80;;;;;;;;;;5008951;28;20308;-49
2022/06/20 07:01:48;;;;;;;159.33;111.87;;;;;;;;;;5009092;28;20220;-49
2022/06/20 07:04:17;;;;;;;163.20;104.33;;;;;;;;;;5009244;28;20208;-50
2022/06/20 07:06:48;;;;;;;163.80;104.27;;;;;;;;;;5008520;28;20209;-50
2022/06/20 07:09:34;;;;;;;172.20;111.67;;;;;;;;;;4991557;28;20245;-50
2022/06/20 07:12:06;;;;;;;169.73;110.20;;;;;;;;;;5009254;28;20208;-50
2022/06/20 07:14:34;;;;;;;179.73;112.13;;;;;;;;;;5008873;28;20287;-50
2022/06/20 07:17:14;;;;;;;181.20;114.03;;;;;;;;;;5008697;28;20339;-49
2022/06/20 07:19:42;;;;;;;173.90;114.37;;;;;;;;;;5008439;28;20606;-50
2022/06/20 07:22:10;;;;;;;172.97;110.40;;;;;;;;;;5009033;28;20238;-50
2022/06/20 07:24:37;;;;;;;189.73;117.63;;;;;;;;;;4990568;28;20212;-50
2022/06/20 07:27:06;;;;;;;186.43;115.07;;;;;;;;;;5008749;28;20223;-50
2022/06/20 07:29:34;;;;;;;182.45;114.25;;;;;;;;;;5008020;28;20231;-50
2022/06/20 07:32:02;;;;;;;181.30;115.70;;;;;;;;;;5008376;28;20266;-50
2022/06/20 07:34:37;;;;;;;169.90;114.83;;;;;;;;;;5008080;28;20192;-50
2022/06/20 07:37:06;;;;;;;160.17;110.63;;;;;;;;;;5007854;28;20219;-49
2022/06/20 07:39:38;;;;;;;178.57;117.05;;;;;;;;;;5008346;28;20221;-50
2022/06/20 07:42:04;;;;;;;177.10;116.73;;;;;;;;;;5008281;28;20796;-50
2022/06/20 07:44:36;;;;;;;196.57;121.87;;;;;;;;;;5007907;28;20307;-49
2022/06/20 07:47:05;;;;;;;178.80;115.63;;;;;;;;;;5008172;28;20684;-50
2022/06/20 07:49:37;;;;;;;190.93;121.00;;;;;;;;;;5007675;28;20558;-50
2022/06/20 07:52:12;;;;;;;195.00;119.60;;;;;;;;;;5006985;28;20195;-50
2022/06/20 07:54:44;;;;;;;195.30;122.33;;;;;;;;;;5007861;28;20231;-50
2022/06/20 07:57:17;;;;;;;180.07;117.90;;;;;;;;;;5008181;28;20247;-50
2022/06/20 07:59:43;;;;;;;183.17;118.73;;;;;;;;;;5007968;28;20229;-50
2022/06/20 08:02:15;;;;;;;180.97;117.27;;;;;;;;;;5007881;28;20712;-49
2022/06/20 08:04:44;;;;;;;185.67;119.67;;;;;;;;;;5008220;28;20221;-50
2022/06/20 08:07:25;;;;;;;192.23;122.30;;;;;;;;;;5008064;28;20173;-50
2022/06/20 08:09:54;;;;;;;179.02;116.82;;;;;;;;;;5007828;28;20710;-49
2022/06/20 08:12:30;;;;;;;227.63;133.13;;;;;;;;;;5007612;28;20628;-56
2022/06/20 08:14:56;;;;;;;161.63;114.13;;;;;;;;;;5007990;28;20585;-50
2022/06/20 08:17:23;;;;;;;190.87;119.23;;;;;;;;;;5007769;28;20221;-50
2022/06/20 08:19:49;;;;;;;149.88;110.55;;;;;;;;;;5007878;28;20212;-50
2022/06/20 08:22:25;;;;;;;175.20;115.97;;;;;;;;;;5008388;28;20169;-50
2022/06/20 08:25:00;;;;;;;181.33;116.63;;;;;;;;;;5007918;28;20201;-50
2022/06/20 08:27:34;;;;;;;182.60;116.47;;;;;;;;;;5007749;28;20204;-50
2022/06/20 08:30:03;;;;;;;179.17;118.17;;;;;;;;;;5008091;28;20260;-49
2022/06/20 08:32:34;;;;;;;184.03;117.57;;;;;;;;;;5007708;28;20589;-50
2022/06/20 08:35:15;;;;;;;189.67;118.43;;;;;;;;;;4990340;28;20289;-49
2022/06/20 08:37:44;;;;;;;155.93;109.07;;;;;;;;;;5007670;28;20315;-49
2022/06/20 08:40:13;;;;;;;150.60;108.50;;;;;;;;;;4991211;28;20319;-49
2022/06/20 08:42:54;;;;;;;163.23;112.57;;;;;;;;;;5007997;28;20240;-50
2022/06/20 08:45:38;;;;;;;159.40;106.37;;;;;;;;;;5008340;28;20239;-49
2022/06/20 08:48:18;;;;;;;153.00;108.57;;;;;;;;;;5009566;28;20227;-50
2022/06/20 08:50:59;;;;;;;164.30;112.23;;;;;;;;;;5011005;28;20232;-49
2022/06/20 08:53:40;;;;;;;124.70;99.13;;;;;;;;;;5011437;28;20770;-50
2022/06/20 08:56:06;;;;;;;168.10;111.80;;;;;;;;;;5011097;28;20254;-49
2022/06/20 08:58:50;;;;;;;155.00;107.67;;;;;;;;;;5010796;28;20201;-49
2022/06/20 09:01:27;;;;;;;311.33;158.53;;;;;;;;;;4984857;28;20192;-51
2022/06/20 09:03:53;;;;;;;243.17;139.17;;;;;;;;;;4982678;28;20239;-51
2022/06/20 09:06:18;;;;;;;328.30;164.93;;;;;;;;;;4981854;28;20213;-51
2022/06/20 09:09:03;;;;;;;212.68;127.82;;;;;;;;;;4986927;28;22612;-51
2022/06/20 09:11:41;;;;;;;251.40;141.27;;;;;;;;;;4986870;28;20217;-51
2022/06/20 09:14:13;;;;;;;434.93;208.17;;;;;;;;;;4979665;28;20219;-50
2022/06/20 09:16:47;;;;;;;274.73;153.45;;;;;;;;;;4985988;28;20741;-51
2022/06/20 09:19:13;;;;;;;186.70;116.32;;;;;;;;;;4995670;28;20205;-51
2022/06/20 09:21:56;;;;;;;204.30;127.70;;;;;;;;;;4989848;28;20218;-51
2022/06/20 09:24:30;;;;;;;287.20;156.85;;;;;;;;;;4989247;28;20340;-51
2022/06/20 09:26:56;;;;;;;282.57;156.63;;;;;;;;;;4990794;28;20217;-51
2022/06/20 09:29:40;;;;;;;206.68;131.70;;;;;;;;;;4981223;28;20589;-51
2022/06/20 09:32:09;;;;;;;289.02;160.65;;;;;;;;;;4982673;28;20323;-51
2022/06/20 09:34:53;;;;;;;257.92;140.10;;;;;;;;;;4988477;28;20193;-51
2022/06/20 09:37:36;;;;;;;196.98;127.20;;;;;;;;;;4996844;28;20190;-51
2022/06/20 09:40:10;;;;;;;269.55;151.45;;;;;;;;;;4996375;28;20216;-51
2022/06/20 09:42:36;;;;;;;204.63;134.85;;;;;;;;;;4993385;28;20243;-51
2022/06/20 09:45:06;;;;;;;219.80;139.55;;;;;;;;;;4991055;28;20236;-51
2022/06/20 09:47:38;;;;;;;242.65;144.85;;;;;;;;;;4996726;28;20230;-51
2022/06/20 09:50:23;;;;;;;228.00;141.07;;;;;;;;;;4995875;28;20296;-51
2022/06/20 09:53:07;;;;;;;245.15;151.00;;;;;;;;;;4999893;28;20244;-51
2022/06/20 09:55:51;;;;;;;258.63;154.38;;;;;;;;;;4997489;28;20211;-51
2022/06/20 09:58:35;;;;;;;223.68;138.15;;;;;;;;;;4999245;28;20275;-51
2022/06/20 10:01:07;;;;;;;184.70;127.85;;;;;;;;;;4996717;28;20274;-51
2022/06/20 10:03:44;;;;;;;159.40;120.55;;;;;;;;;;4995230;28;20681;-51
2022/06/20 10:06:30;;;;;;;201.48;135.45;;;;;;;;;;4989887;28;20282;-51
2022/06/20 10:09:14;;;;;;;210.10;136.00;;;;;;;;;;4981033;28;20690;-51
2022/06/20 10:11:48;;;;;;;222.75;141.75;;;;;;;;;;4993944;28;20219;-51
2022/06/20 10:14:36;;;;;;;210.43;136.95;;;;;;;;;;4991467;28;20205;-51
2022/06/20 10:17:22;;;;;;;249.48;146.50;;;;;;;;;;4994888;28;20227;-51
2022/06/20 10:19:57;;;;;;;205.43;134.98;;;;;;;;;;4973284;28;20224;-51
2022/06/20 10:22:43;;;;;;;295.23;161.90;;;;;;;;;;4990198;28;20609;-51
2022/06/20 10:25:09;;;;;;;342.75;180.63;;;;;;;;;;4987977;28;20572;-51
2022/06/20 10:27:50;;;;;;;213.52;135.15;;;;;;;;;;4987877;28;20214;-51
2022/06/20 10:30:16;;;;;;;261.27;148.48;;;;;;;;;;4990804;28;20288;-51
2022/06/20 10:32:51;;;;;;;158.65;115.82;;;;;;;;;;4995371;28;20224;-51
2022/06/20 10:35:19;;;;;;;210.40;133.90;;;;;;;;;;4991146;28;20605;-51
2022/06/20 10:37:58;;;;;;;259.42;146.65;;;;;;;;;;4994030;28;20225;-52
2022/06/20 10:40:30;;;;;;;245.05;143.57;;;;;;;;;;4994787;28;20637;-51
2022/06/20 10:43:06;;;;;;;181.25;122.68;;;;;;;;;;4997399;28;20303;-51
2022/06/20 10:45:32;;;;;;;200.63;128.50;;;;;;;;;;4990382;28;20220;-51
2022/06/20 10:48:07;;;;;;;205.43;128.25;;;;;;;;;;4993126;28;20388;-51
2022/06/20 10:50:35;;;;;;;247.05;142.70;;;;;;;;;;4993455;28;20221;-51
2022/06/20 10:53:20;;;;;;;480.20;237.35;;;;;;;;;;4982771;28;20412;-51
2022/06/20 10:56:05;;;;;;;301.70;163.50;;;;;;;;;;4972421;28;20236;-51
2022/06/20 10:58:38;;;;;;;246.20;141.20;;;;;;;;;;4985497;28;20681;-51
2022/06/20 11:01:10;;;;;;;318.57;164.17;;;;;;;;;;4975610;28;20188;-51
2022/06/20 11:03:42;;;;;;;348.10;181.55;;;;;;;;;;4961954;28;20227;-51
2022/06/20 11:06:31;;;;;;;310.33;170.27;;;;;;;;;;4985743;28;20217;-51
2022/06/20 11:09:17;;;;;;;248.23;140.43;;;;;;;;;;4944965;28;20212;-51
2022/06/20 11:12:01;;;;;;;288.58;155.57;;;;;;;;;;4981403;28;20680;-51
2022/06/20 11:14:56;;;;;;;255.75;146.27;;;;;;;;;;4982617;28;20237;-51
2022/06/20 11:17:31;;;;;;;264.93;146.83;;;;;;;;;;4969378;28;20300;-51
2022/06/20 11:20:17;;;;;;;220.37;130.33;;;;;;;;;;4988345;28;20236;-51
2022/06/20 11:23:06;;;;;;;253.68;145.18;;;;;;;;;;4983049;28;20534;-51
2022/06/20 11:25:32;;;;;;;195.98;124.07;;;;;;;;;;4974077;28;20622;-51
2022/06/20 11:28:04;;;;;;;174.67;116.27;;;;;;;;;;4978693;28;20200;-51
2022/06/20 11:30:37;;;;;;;297.47;159.87;;;;;;;;;;4975748;28;20251;-51
2022/06/20 11:33:16;;;;;;;204.03;128.73;;;;;;;;;;4988860;28;20241;-51
2022/06/20 11:35:54;;;;;;;199.33;126.77;;;;;;;;;;4982800;28;20220;-51
2022/06/20 11:38:26;;;;;;;283.60;152.80;;;;;;;;;;4982176;28;20221;-51
2022/06/20 11:41:01;;;;;;;319.40;167.83;;;;;;;;;;4982439;28;20286;-51
2022/06/20 11:43:30;;;;;;;203.82;128.45;;;;;;;;;;4975803;28;20720;-51
2022/06/20 11:46:15;;;;;;;207.10;130.90;;;;;;;;;;4986000;28;20291;-51
2022/06/20 11:49:00;;;;;;;214.70;131.00;;;;;;;;;;4985639;28;20814;-51
2022/06/20 11:51:48;;;;;;;213.95;129.07;;;;;;;;;;4984985;28;20244;-51
2022/06/20 11:54:20;;;;;;;204.00;126.93;;;;;;;;;;4985873;28;20578;-51
2022/06/20 11:56:52;;;;;;;166.85;118.80;;;;;;;;;;4985441;28;20505;-51
2022/06/20 11:59:29;;;;;;;180.27;120.90;;;;;;;;;;4986087;28;20221;-51
2022/06/20 12:02:12;;;;;;;289.60;159.00;;;;;;;;;;4981250;28;20448;-51
2022/06/20 12:04:41;;;;;;;185.00;122.53;;;;;;;;;;4978942;28;20244;-51
2022/06/20 12:07:12;;;;;;;320.25;169.90;;;;;;;;;;4977949;28;24130;-51
2022/06/20 12:09:48;;;;;;;209.00;125.13;;;;;;;;;;4975777;28;20230;-51
2022/06/20 12:12:33;;;;;;;239.80;138.30;;;;;;;;;;4979055;28;20220;-51
2022/06/20 12:15:25;;;;;;;339.93;175.97;;;;;;;;;;4978658;28;20256;-51
2022/06/20 12:18:21;;;;;;;198.43;125.07;;;;;;;;;;4940236;28;20540;-51
2022/06/20 12:23:48;;;;;;;247.07;140.82;;;;;;;;;;4980344;28;20706;-51
2022/06/20 12:26:17;;;;;;;282.33;153.27;;;;;;;;;;4978030;28;20759;-51
2022/06/20 12:28:45;;;;;;;253.60;143.68;;;;;;;;;;4979091;28;20224;-51
2022/06/20 12:31:13;;;;;;;190.90;124.28;;;;;;;;;;4991367;28;20189;-51
2022/06/20 12:33:41;;;;;;;265.23;150.57;;;;;;;;;;4985072;28;21342;-51
2022/06/20 12:36:13;;;;;;;258.50;148.83;;;;;;;;;;4981556;28;20317;-51
2022/06/20 12:38:46;;;;;;;289.57;157.07;;;;;;;;;;4975151;28;20221;-51
2022/06/20 12:41:15;;;;;;;388.07;193.43;;;;;;;;;;4979294;28;20686;-51
2022/06/20 12:43:47;;;;;;;194.50;124.82;;;;;;;;;;4982458;28;20669;-51
2022/06/20 12:46:25;;;;;;;340.20;176.63;;;;;;;;;;4982259;28;20193;-51
2022/06/20 12:49:07;;;;;;;412.90;210.63;;;;;;;;;;4972617;28;20260;-51
2022/06/20 12:51:48;;;;;;;225.07;135.10;;;;;;;;;;4970724;28;20225;-51
2022/06/20 12:54:19;;;;;;;370.27;189.25;;;;;;;;;;4973946;28;20218;-51
2022/06/20 12:56:56;;;;;;;326.92;167.68;;;;;;;;;;4979061;28;20958;-51
2022/06/20 12:59:41;;;;;;;245.38;138.65;;;;;;;;;;4980858;28;20228;-51
2022/06/20 13:02:13;;;;;;;441.90;223.30;;;;;;;;;;4976995;28;20220;-51
2022/06/20 13:04:48;;;;;;;287.02;156.63;;;;;;;;;;4986641;28;20240;-51
2022/06/20 13:07:33;;;;;;;234.45;135.80;;;;;;;;;;4987333;28;20185;-51
2022/06/20 13:10:17;;;;;;;220.30;132.97;;;;;;;;;;4981719;28;20243;-51
2022/06/20 13:12:52;;;;;;;167.20;117.95;;;;;;;;;;4990112;28;20285;-51
2022/06/20 13:15:32;;;;;;;324.90;171.37;;;;;;;;;;4985513;28;20736;-51
2022/06/20 13:18:05;;;;;;;202.77;127.00;;;;;;;;;;4976210;28;20327;-51
2022/06/20 13:20:34;;;;;;;197.90;128.65;;;;;;;;;;4981090;28;20718;-51
2022/06/20 13:23:06;;;;;;;287.23;157.93;;;;;;;;;;4975192;28;20255;-51
2022/06/20 13:25:50;;;;;;;193.80;126.70;;;;;;;;;;4987724;28;20269;-52
2022/06/20 13:28:35;;;;;;;408.42;212.65;;;;;;;;;;4983001;28;20213;-52
2022/06/20 13:31:11;;;;;;;256.38;147.13;;;;;;;;;;4980968;28;20292;-51
2022/06/20 13:33:50;;;;;;;156.90;112.72;;;;;;;;;;4980728;28;20381;-51
2022/06/20 13:36:20;;;;;;;270.95;146.90;;;;;;;;;;4978197;28;20209;-51
2022/06/20 13:38:54;;;;;;;178.85;118.80;;;;;;;;;;4983941;28;20410;-51
2022/06/20 13:41:37;;;;;;;306.55;161.10;;;;;;;;;;4981486;28;20225;-51
2022/06/20 13:44:38;;;;;;;248.68;142.38;;;;;;;;;;4984696;28;20324;-51
2022/06/20 13:47:10;;;;;;;243.45;138.15;;;;;;;;;;4879442;29;20248;-51
2022/06/20 13:50:01;;;;;;;253.98;149.20;;;;;;;;;;4971490;28;20213;-51
2022/06/20 13:52:29;;;;;;;253.90;146.00;;;;;;;;;;4987823;28;20220;-51
2022/06/20 13:54:55;;;;;;;356.67;188.40;;;;;;;;;;4976540;28;20638;-51
2022/06/20 13:57:29;;;;;;;245.32;139.90;;;;;;;;;;4985924;28;20212;-51
2022/06/20 14:00:17;;;;;;;294.77;165.70;;;;;;;;;;4989063;28;20232;-51
2022/06/20 14:02:45;;;;;;;393.90;200.90;;;;;;;;;;4987705;28;20220;-52
2022/06/20 14:05:18;;;;;;;405.53;207.60;;;;;;;;;;4987583;28;20727;-51
2022/06/20 14:07:45;;;;;;;273.73;150.13;;;;;;;;;;4991915;28;20215;-51
2022/06/20 14:10:20;;;;;;;260.60;147.77;;;;;;;;;;4981569;28;20189;-52
2022/06/20 14:12:49;;;;;;;325.27;168.47;;;;;;;;;;4975819;28;20215;-52
2022/06/20 14:15:19;;;;;;;205.15;126.97;;;;;;;;;;4983650;28;20224;-52
2022/06/20 14:17:56;;;;;;;260.33;144.23;;;;;;;;;;4982216;28;20413;-51
2022/06/20 14:20:33;;;;;;;345.80;176.18;;;;;;;;;;4977966;28;20355;-52
2022/06/20 14:23:00;;;;;;;283.75;150.88;;;;;;;;;;4964466;28;20269;-52
2022/06/20 14:25:32;;;;;;;238.15;137.73;;;;;;;;;;4977985;28;20942;-52
2022/06/20 14:27:58;;;;;;;194.18;122.78;;;;;;;;;;4991491;28;20209;-52
2022/06/20 14:30:35;;;;;;;238.60;138.02;;;;;;;;;;4984616;28;20216;-52
2022/06/20 14:33:01;;;;;;;214.88;134.25;;;;;;;;;;4985306;28;20736;-52
2022/06/20 14:35:35;;;;;;;350.90;183.70;;;;;;;;;;4986978;28;21828;-52